Date/Time EDT BROAD KEY-Water Temp BROAD KEY-Linear Conductivity BROAD KEY-Non Linear Conductivity BROAD KEY-Water Level BROAD KEY-Salinity BROAD KEY-TDS BROAD KEY-Air Temp BROAD KEY-Water Temp in F BROAD KEY-Air Temp in F
20-Sep-2017 08:35 29.98 2,059.87 2,057.14 4.92 1.02 973.25 71.21 85.96 160.18
20-Sep-2017 07:10 29.86 2,033.21 2,030.66 4.46 1.01 961.99 70.31 85.75 158.56
20-Sep-2017 06:55 29.86 2,033.63 2,031.07 4.39 1.01 961.81 71.26 85.75 160.27
20-Sep-2017 06:45 29.87 2,032.65 2,030.09 4.34 1.01 961.74 71.25 85.77 160.25
20-Sep-2017 06:40 29.90 2,033.79 2,031.19 4.32 1.01 962.04 70.92 85.82 159.66
20-Sep-2017 06:25 30.01 2,030.48 2,027.74 4.26 1.01 960.46 70.83 86.02 159.49
20-Sep-2017 06:20 30.05 2,028.44 2,025.66 4.24 1.01 959.88 71.14 86.09 160.05
20-Sep-2017 05:55 30.11 2,038.51 2,035.64 4.16 1.01 964.16 70.38 86.20 158.68
20-Sep-2017 05:25 30.15 2,034.66 2,031.75 4.02 1.01 962.56 71.48 86.27 160.66
20-Sep-2017 04:50 30.07 2,037.36 2,034.53 3.90 1.01 963.66 70.63 86.13 159.13
20-Sep-2017 03:30 30.11 2,013.22 2,010.39 3.92 1.00 950.11 93.34 86.20 200.01
20-Sep-2017 03:15 30.12 2,017.40 2,014.55 3.96 1.00 952.08 94.21 86.22 201.58
20-Sep-2017 02:05 30.19 2,038.65 2,035.69 4.26 1.01 964.18 91.00 86.34 195.80
19-Sep-2017 18:35 31.40 1,921.88 1,917.53 4.44 0.95 909.91 82.28 88.52 180.10
19-Sep-2017 18:00 31.34 1,925.29 1,921.01 4.28 0.95 911.00 79.72 88.41 175.50
18-Sep-2017 20:50 30.46 1,974.13 1,970.93 5.12 0.98 933.84 93.99 86.83 201.18
18-Sep-2017 20:45 30.50 1,973.31 1,970.05 5.10 0.98 932.73 93.46 86.90 200.23
18-Sep-2017 20:40 30.54 1,966.57 1,963.28 5.09 0.98 930.85 93.31 86.97 199.96
18-Sep-2017 20:35 30.61 1,960.92 1,957.54 5.07 0.97 927.79 91.88 87.10 197.38
18-Sep-2017 20:30 30.66 1,956.89 1,953.46 5.05 0.97 926.09 92.70 87.19 198.86
18-Sep-2017 20:25 30.73 1,953.87 1,950.35 5.03 0.97 924.84 90.28 87.31 194.50
18-Sep-2017 19:50 31.04 1,935.32 1,931.43 4.90 0.96 915.50 90.41 87.87 194.74
18-Sep-2017 19:40 31.10 1,926.03 1,922.07 4.86 0.95 911.73 89.23 87.98 192.61
18-Sep-2017 19:30 31.16 1,913.54 1,909.53 4.82 0.95 906.56 90.37 88.09 194.67
18-Sep-2017 19:20 31.16 1,909.92 1,905.92 4.76 0.95 904.08 92.50 88.09 198.50
18-Sep-2017 19:05 31.12 1,910.23 1,906.28 4.68 0.95 904.16 92.83 88.02 199.09
18-Sep-2017 19:00 31.12 1,911.14 1,907.18 4.65 0.95 904.98 92.50 88.02 198.50
18-Sep-2017 18:55 31.14 1,914.60 1,910.61 4.63 0.95 906.23 93.29 88.05 199.92
18-Sep-2017 18:50 31.17 1,916.09 1,912.06 4.59 0.95 906.97 91.42 88.11 196.56
18-Sep-2017 18:45 31.18 1,916.65 1,912.61 4.55 0.95 907.64 92.23 88.12 198.01
18-Sep-2017 18:40 31.19 1,917.75 1,913.70 4.53 0.95 907.56 92.98 88.14 199.36
18-Sep-2017 18:35 31.22 1,916.88 1,912.79 4.49 0.95 907.06 92.48 88.20 198.46
18-Sep-2017 18:30 31.30 1,917.35 1,913.15 4.46 0.95 907.73 92.10 88.34 197.78
18-Sep-2017 18:25 31.29 1,920.08 1,915.88 4.43 0.95 908.06 92.19 88.32 197.94
18-Sep-2017 18:20 31.31 1,923.23 1,918.99 4.39 0.95 908.81 93.49 88.36 200.28
18-Sep-2017 18:10 31.36 1,926.43 1,922.12 4.35 0.95 909.24 93.64 88.45 200.55
18-Sep-2017 18:05 31.43 1,926.71 1,922.30 4.33 0.95 910.33 95.60 88.57 204.08
18-Sep-2017 17:55 31.44 1,927.84 1,923.41 4.27 0.95 910.58 95.27 88.59 203.49
18-Sep-2017 16:50 30.85 1,932.58 1,928.95 3.99 0.96 913.95 98.04 87.53 208.47
18-Sep-2017 01:55 29.96 1,928.00 1,925.46 3.94 0.95 912.30 87.51 85.93 189.52
18-Sep-2017 01:45 29.98 1,928.22 1,925.66 3.96 0.96 911.48 87.11 85.96 188.80
18-Sep-2017 01:35 30.01 1,926.29 1,923.70 3.99 0.95 911.24 87.45 86.02 189.41
18-Sep-2017 00:25 30.16 1,968.02 1,965.19 4.28 0.97 929.08 87.02 86.29 188.64
18-Sep-2017 00:10 30.20 1,978.90 1,976.01 4.35 0.98 933.31 84.41 86.36 183.94
18-Sep-2017 00:00 30.21 1,979.70 1,976.80 4.40 0.98 934.88 84.46 86.38 184.03
17-Sep-2017 23:55 30.20 1,986.76 1,983.85 4.43 0.98 937.31 83.45 86.36 182.21
17-Sep-2017 23:50 30.21 1,988.33 1,985.40 4.45 0.99 938.11 83.36 86.38 182.05
17-Sep-2017 23:40 30.22 1,988.53 1,985.60 4.50 0.99 938.46 82.29 86.40 180.12
17-Sep-2017 23:30 30.27 1,984.47 1,981.48 4.55 0.98 936.31 81.77 86.49 179.19
17-Sep-2017 21:40 30.30 2,036.92 2,033.81 5.07 1.01 961.93 75.72 86.54 168.30
17-Sep-2017 21:20 30.30 2,025.07 2,021.98 5.12 1.01 957.91 72.75 86.54 162.95
17-Sep-2017 06:05 29.36 1,940.89 1,939.00 4.85 0.96 915.68 100.37 84.85 212.67
17-Sep-2017 06:00 29.36 1,928.36 1,926.48 4.82 0.96 913.88 100.75 84.85 213.35
17-Sep-2017 05:35 29.42 1,933.49 1,931.54 4.70 0.96 915.05 100.40 84.96 212.72
17-Sep-2017 02:45 29.88 1,902.68 1,900.26 4.01 0.94 900.69 99.04 85.78 210.27
17-Sep-2017 02:25 29.85 1,899.84 1,897.46 3.96 0.94 899.49 99.21 85.73 210.58
17-Sep-2017 01:25 29.77 1,887.45 1,885.18 3.97 0.93 891.67 99.84 85.59 211.71
17-Sep-2017 00:30 29.96 1,908.77 1,906.26 4.08 0.94 901.90 99.01 85.93 210.22
17-Sep-2017 00:00 30.05 1,908.91 1,906.30 4.18 0.95 903.12 96.97 86.09 206.55
16-Sep-2017 23:55 30.05 1,910.33 1,907.71 4.20 0.95 904.49 97.14 86.09 206.85
16-Sep-2017 23:45 30.07 1,918.17 1,915.52 4.23 0.95 907.50 97.30 86.13 207.14
16-Sep-2017 23:40 30.08 1,916.06 1,913.39 4.25 0.95 907.26 97.89 86.14 208.20
16-Sep-2017 23:35 30.08 1,920.52 1,917.85 4.26 0.95 908.40 97.56 86.14 207.61
16-Sep-2017 23:15 30.16 1,931.28 1,928.50 4.33 0.96 914.42 97.55 86.29 207.59
16-Sep-2017 23:10 30.17 1,923.91 1,921.13 4.35 0.95 910.30 96.30 86.31 205.34
16-Sep-2017 22:50 30.27 1,925.34 1,922.45 4.41 0.95 911.07 97.65 86.49 207.77
16-Sep-2017 22:45 30.30 1,930.65 1,927.71 4.45 0.96 913.97 95.24 86.54 203.43
16-Sep-2017 22:35 30.36 1,936.77 1,933.75 4.49 0.96 916.99 93.52 86.65 200.34
16-Sep-2017 22:30 30.36 1,945.40 1,942.37 4.52 0.96 920.52 93.85 86.65 200.93
16-Sep-2017 22:25 30.36 1,946.34 1,943.30 4.53 0.96 921.11 92.84 86.65 199.11
16-Sep-2017 22:20 30.37 1,946.92 1,943.86 4.56 0.97 922.13 94.25 86.67 201.65
16-Sep-2017 22:15 30.38 1,952.69 1,949.61 4.58 0.97 923.32 94.62 86.68 202.32
16-Sep-2017 22:10 30.39 1,954.58 1,951.48 4.61 0.97 924.51 93.63 86.70 200.53
16-Sep-2017 22:05 30.41 1,956.86 1,953.74 4.63 0.97 925.03 92.47 86.74 198.45
16-Sep-2017 22:00 30.43 1,958.39 1,955.25 4.64 0.97 925.89 93.93 86.77 201.07
16-Sep-2017 21:35 30.48 1,967.00 1,963.78 4.72 0.98 929.61 83.67 86.86 182.61
16-Sep-2017 21:25 30.49 1,969.48 1,966.24 4.76 0.98 931.08 80.46 86.88 176.83
16-Sep-2017 21:10 30.55 1,972.87 1,969.55 4.82 0.98 933.20 76.86 86.99 170.35
16-Sep-2017 20:15 30.65 1,983.69 1,980.22 5.00 0.98 936.67 71.28 87.17 160.30
16-Sep-2017 20:10 30.70 1,982.30 1,978.76 5.03 0.98 934.86 71.99 87.26 161.58
16-Sep-2017 20:05 30.75 1,989.23 1,985.61 5.03 0.99 938.77 71.10 87.35 159.98
16-Sep-2017 20:00 30.79 1,987.58 1,983.93 5.05 0.98 938.09 70.74 87.42 159.33
16-Sep-2017 19:55 30.80 1,986.27 1,982.59 5.05 0.98 937.31 69.62 87.44 157.32
16-Sep-2017 19:40 30.88 1,975.49 1,971.73 5.04 0.98 932.97 68.73 87.58 155.71
16-Sep-2017 19:30 30.94 1,972.39 1,968.55 5.04 0.98 931.43 71.07 87.69 159.93
16-Sep-2017 19:15 31.05 1,967.49 1,963.52 5.02 0.97 928.95 80.31 87.89 176.56
16-Sep-2017 19:10 31.11 1,964.20 1,960.15 5.01 0.97 927.68 84.70 88.00 184.46
16-Sep-2017 18:50 31.17 1,953.13 1,949.03 4.96 0.97 923.21 86.26 88.11 187.27
16-Sep-2017 18:45 31.19 1,949.78 1,945.66 4.94 0.97 921.33 84.92 88.14 184.86
16-Sep-2017 18:30 31.12 1,928.44 1,924.46 4.90 0.96 914.50 86.60 88.02 187.88
16-Sep-2017 18:25 31.19 1,927.63 1,923.56 4.87 0.96 913.67 87.21 88.14 188.98
16-Sep-2017 18:20 31.16 1,928.51 1,924.47 4.87 0.96 913.42 85.21 88.09 185.38
16-Sep-2017 18:15 31.03 1,925.55 1,921.69 4.84 0.95 911.55 86.41 87.85 187.54
16-Sep-2017 18:10 30.92 1,924.28 1,920.57 4.81 0.96 910.95 83.26 87.66 181.87
16-Sep-2017 18:00 30.90 1,926.62 1,922.93 4.79 0.96 912.03 84.11 87.62 183.40
16-Sep-2017 17:55 30.92 1,928.85 1,925.13 4.74 0.96 913.12 70.86 87.66 159.55
16-Sep-2017 17:50 30.89 1,931.36 1,927.68 4.74 0.96 913.95 63.33 87.60 145.99
16-Sep-2017 17:45 30.89 1,929.16 1,925.48 4.71 0.96 913.20 55.91 87.60 132.64
16-Sep-2017 17:35 31.03 1,932.35 1,928.47 4.66 0.96 914.07 54.05 87.85 129.29
16-Sep-2017 17:25 31.27 1,929.24 1,925.05 4.63 0.96 913.01 51.67 88.29 125.01
16-Sep-2017 17:10 31.33 1,930.26 1,925.98 4.55 0.96 913.19 47.87 88.39 118.17
16-Sep-2017 17:05 31.33 1,930.63 1,926.35 4.48 0.96 913.86 49.54 88.39 121.17
16-Sep-2017 17:00 31.34 1,929.71 1,925.43 4.49 0.96 914.03 48.09 88.41 118.56
16-Sep-2017 16:55 31.32 1,930.61 1,926.35 4.45 0.96 914.46 49.04 88.38 120.27
16-Sep-2017 16:50 31.32 1,931.16 1,926.90 4.43 0.96 914.54 49.65 88.38 121.37
16-Sep-2017 16:45 31.29 1,930.74 1,926.52 4.40 0.96 914.54 49.28 88.32 120.70
16-Sep-2017 16:10 31.03 1,931.06 1,927.19 4.20 0.96 914.15 48.27 87.85 118.89
16-Sep-2017 15:25 30.66 1,930.96 1,927.57 4.02 0.96 913.65 46.77 87.19 116.19
16-Sep-2017 11:00 30.05 1,960.40 1,957.72 4.13 0.97 927.21 63.03 86.09 145.45
16-Sep-2017 08:40 29.56 2,017.15 2,014.96 4.80 1.00 951.27 98.17 85.21 208.71
16-Sep-2017 07:55 29.53 2,031.18 2,029.00 4.96 1.01 957.74 103.99 85.15 219.18
16-Sep-2017 07:50 29.53 2,033.14 2,030.97 5.00 1.01 958.65 103.53 85.15 218.35
16-Sep-2017 07:15 29.58 2,024.67 2,022.45 5.09 1.00 954.68 102.68 85.24 216.82
16-Sep-2017 06:15 29.96 1,983.68 1,981.07 5.03 0.98 937.97 101.41 85.93 214.54
16-Sep-2017 06:00 29.92 1,959.71 1,957.17 5.01 0.97 926.80 101.37 85.86 214.47
16-Sep-2017 05:55 29.90 1,957.42 1,954.91 4.99 0.97 925.52 94.89 85.82 202.80
16-Sep-2017 05:45 29.89 1,952.96 1,950.47 4.96 0.97 924.00 98.64 85.80 209.55
16-Sep-2017 05:40 29.89 1,951.29 1,948.81 4.94 0.97 922.82 100.41 85.80 212.74
16-Sep-2017 05:35 29.90 1,949.85 1,947.35 4.94 0.97 922.40 100.08 85.82 212.14
16-Sep-2017 05:15 29.95 1,938.64 1,936.10 4.88 0.96 917.25 101.33 85.91 214.39
16-Sep-2017 04:45 29.91 1,930.25 1,927.76 4.75 0.96 912.86 98.97 85.84 210.15
16-Sep-2017 04:15 29.90 1,932.01 1,929.54 4.62 0.96 913.26 89.60 85.82 193.28
16-Sep-2017 04:05 29.85 1,931.55 1,929.13 4.58 0.96 913.58 89.63 85.73 193.33
16-Sep-2017 04:00 29.84 1,930.45 1,928.05 4.56 0.96 912.34 88.55 85.71 191.39
16-Sep-2017 03:55 29.82 1,927.90 1,925.52 4.54 0.96 912.01 34.16 85.68 93.49
16-Sep-2017 03:50 29.82 1,925.93 1,923.55 4.52 0.95 911.03 31.50 85.68 88.70
16-Sep-2017 03:40 29.88 1,922.64 1,920.20 4.47 0.95 909.17 30.66 85.78 87.19
16-Sep-2017 03:30 29.91 1,917.71 1,915.24 4.42 0.95 905.36 30.68 85.84 87.22
16-Sep-2017 03:15 29.96 1,912.13 1,909.61 4.37 0.95 902.95 30.55 85.93 86.99
16-Sep-2017 03:10 29.97 1,911.07 1,908.55 4.35 0.95 902.54 30.45 85.95 86.81
16-Sep-2017 03:05 29.99 1,912.54 1,909.98 4.33 0.95 903.51 30.42 85.98 86.76
16-Sep-2017 03:00 29.99 1,915.55 1,912.99 4.31 0.95 905.05 30.23 85.98 86.41
16-Sep-2017 02:50 30.03 1,914.02 1,911.41 4.30 0.95 904.09 30.06 86.05 86.11
16-Sep-2017 02:30 30.24 1,918.64 1,915.79 4.25 0.95 905.98 31.09 86.43 87.96
16-Sep-2017 02:20 30.13 1,906.38 1,903.68 4.22 0.94 899.91 31.02 86.23 87.84
16-Sep-2017 02:05 30.11 1,898.80 1,896.13 4.15 0.94 896.71 31.00 86.20 87.80
16-Sep-2017 01:55 30.12 1,894.28 1,891.60 4.12 0.94 896.15 30.96 86.22 87.73
16-Sep-2017 01:30 30.15 1,901.14 1,898.42 4.06 0.94 897.59 31.12 86.27 88.02
16-Sep-2017 00:50 30.29 1,911.06 1,908.15 3.99 0.95 904.61 31.18 86.52 88.12
16-Sep-2017 00:35 30.28 1,911.04 1,908.15 3.99 0.95 904.68 31.22 86.50 88.20
16-Sep-2017 00:30 30.28 1,912.45 1,909.57 3.98 0.95 905.17 31.21 86.50 88.18
15-Sep-2017 22:55 30.22 1,935.58 1,932.73 4.19 0.96 914.94 31.08 86.40 87.94
15-Sep-2017 22:50 30.25 1,938.01 1,935.12 4.21 0.96 916.45 31.07 86.45 87.93
15-Sep-2017 18:25 30.53 1,973.38 1,970.09 4.96 0.98 932.49 31.78 86.95 89.20
15-Sep-2017 18:05 30.65 1,968.96 1,965.51 4.90 0.98 930.92 31.88 87.17 89.38
15-Sep-2017 14:55 31.25 1,932.54 1,928.36 4.12 0.96 912.92 31.69 88.25 89.04
15-Sep-2017 06:40 29.31 1,991.53 1,989.64 4.91 0.99 942.14 29.37 84.76 84.87
15-Sep-2017 06:10 29.32 1,985.72 1,983.82 4.94 0.98 938.79 29.16 84.78 84.49
15-Sep-2017 05:40 29.37 1,979.12 1,977.18 4.91 0.98 935.83 93.54 84.87 200.37
14-Sep-2017 18:50 29.98 2,005.49 2,002.83 4.88 1.00 947.57 83.17 85.96 181.71
14-Sep-2017 07:40 28.79 1,968.13 1,966.79 4.14 0.98 930.85 99.87 83.82 211.77
14-Sep-2017 07:30 28.80 1,967.61 1,966.26 4.20 0.98 930.61 97.10 83.84 206.78
14-Sep-2017 07:15 28.80 1,970.56 1,969.20 4.33 0.98 931.87 93.28 83.84 199.90
14-Sep-2017 07:10 28.81 1,970.20 1,968.85 4.37 0.98 932.20 93.62 83.86 200.52
14-Sep-2017 05:55 28.81 1,982.59 1,981.22 4.70 0.98 937.18 93.05 83.86 199.49
14-Sep-2017 05:50 28.81 1,988.18 1,986.81 4.71 0.99 939.48 93.85 83.86 200.93
14-Sep-2017 05:45 28.82 1,985.24 1,983.86 4.74 0.98 938.47 92.72 83.88 198.90
14-Sep-2017 05:15 28.85 1,973.67 1,972.26 4.82 0.98 931.07 95.12 83.93 203.22
14-Sep-2017 02:45 29.06 1,940.66 1,939.08 4.57 0.96 918.30 88.40 84.31 191.12
14-Sep-2017 01:45 29.17 1,930.94 1,929.25 4.37 0.96 913.55 88.83 84.51 191.89
13-Sep-2017 19:30 29.36 1,947.93 1,946.03 4.35 0.97 921.02 83.92 84.85 183.06
13-Sep-2017 18:45 29.44 1,946.32 1,944.34 4.54 0.96 920.49 84.77 84.99 184.59
13-Sep-2017 17:35 29.27 1,950.43 1,948.62 4.82 0.97 922.22 83.68 84.69 182.62
13-Sep-2017 03:10 28.54 1,955.18 1,954.08 4.77 0.97 923.04 78.29 83.37 172.92
09-Sep-2017 17:40 28.11 1,886.05 1,885.35 5.20 0.93 892.28 87.00 82.60 188.60
09-Sep-2017 15:10 28.55 1,900.27 1,899.20 5.99 0.94 900.21 93.66 83.39 200.59
09-Sep-2017 09:20 28.89 1,889.66 1,888.28 5.34 0.94 895.30 97.64 84.00 207.75
09-Sep-2017 08:20 29.14 1,881.23 1,879.61 4.98 0.93 891.68 97.89 84.45 208.20
09-Sep-2017 07:15 29.25 1,885.77 1,884.04 4.76 0.93 893.24 98.24 84.65 208.83
09-Sep-2017 07:00 29.27 1,885.28 1,883.54 4.87 0.93 893.39 98.48 84.69 209.26
09-Sep-2017 06:50 29.29 1,886.16 1,884.39 4.82 0.93 893.24 98.37 84.72 209.07
09-Sep-2017 06:45 29.28 1,889.73 1,887.96 4.81 0.93 893.71 98.40 84.70 209.12
09-Sep-2017 06:40 29.30 1,889.41 1,887.63 4.77 0.94 893.94 98.60 84.74 209.48
09-Sep-2017 00:45 30.48 1,931.73 1,928.56 5.86 0.96 913.36 25.43 86.86 77.77
07-Sep-2017 04:50 31.24 1,941.45 1,937.27 3.71 0.96 918.01 100.23 88.23 212.41
03-Sep-2017 08:40 30.56 1,939.75 1,936.47 4.56 0.96 916.05 105.19 87.01 221.34
03-Sep-2017 08:25 30.55 1,934.22 1,930.97 4.56 0.96 914.21 105.19 86.99 221.34
03-Sep-2017 08:20 30.54 1,936.60 1,933.35 4.56 0.96 914.96 105.19 86.97 221.34
03-Sep-2017 08:10 30.54 1,936.40 1,933.16 4.55 0.96 915.29 105.15 86.97 221.27
03-Sep-2017 06:50 30.53 1,915.35 1,912.15 4.44 0.95 907.74 105.10 86.95 221.18
03-Sep-2017 06:35 30.55 1,917.53 1,914.31 4.39 0.95 907.66 105.10 86.99 221.18
03-Sep-2017 06:30 30.56 1,918.09 1,914.85 4.37 0.95 908.24 105.10 87.01 221.18
02-Sep-2017 11:40 30.67 1,930.07 1,926.66 3.74 0.95 912.32 104.90 87.21 220.82
02-Sep-2017 11:35 30.66 1,929.32 1,925.93 3.76 0.95 911.90 104.86 87.19 220.75
02-Sep-2017 11:20 30.63 1,930.36 1,927.01 3.82 0.96 912.23 104.81 87.13 220.66
02-Sep-2017 11:15 30.62 1,928.69 1,925.36 3.86 0.96 911.81 104.83 87.12 220.69
02-Sep-2017 10:50 30.64 1,931.47 1,928.11 3.99 0.96 913.23 104.78 87.15 220.60
02-Sep-2017 10:45 30.63 1,932.55 1,929.19 4.02 0.96 913.48 104.72 87.13 220.50
02-Sep-2017 10:40 30.64 1,933.30 1,929.93 4.05 0.96 913.73 104.70 87.15 220.46
02-Sep-2017 10:35 30.65 1,933.31 1,929.94 4.07 0.96 913.98 104.65 87.17 220.37
02-Sep-2017 05:45 31.00 1,949.20 1,945.34 4.45 0.97 920.84 104.58 87.80 220.24
02-Sep-2017 05:40 31.00 1,952.02 1,948.15 4.43 0.97 921.61 104.55 87.80 220.19